Time;durP1;ratioP1;P1;durP2;ratioP2;P2;SDS_P1;SDS_P2;PMS_P1;PMS_P2;Temp;Humidity;BMP_temperature;BMP_pressure;BME280_temperature;BME280_humidity;BME280_pressure;Samples;Min_cycle;Max_cycle;Signal;HPM_P1;HPM_P2
2024/01/03 16:58:58;;;;;;;30.50;3.15;;;;;;;20.38;78.73;98940.72;5055626;28;20193;-39
2024/01/03 17:01:27;;;;;;;30.65;3.35;;;;;;;20.41;79.35;98948.31;5037153;28;20037;-36
2024/01/03 17:03:53;;;;;;;14.73;2.90;;;;;;;20.43;79.09;98952.34;5035468;28;20413;-37
2024/01/03 17:06:18;;;;;;;80.15;5.22;;;;;;;20.43;79.08;98944.09;5039258;28;20033;-36
2024/01/03 17:08:44;;;;;;;18.23;3.10;;;;;;;20.44;78.87;98950.38;5038275;28;20496;-37
2024/01/03 17:11:12;;;;;;;27.75;3.90;;;;;;;20.42;78.80;98958.19;5040817;28;20505;-37
2024/01/03 17:13:37;;;;;;;20.90;3.25;;;;;;;20.40;78.59;98955.75;5035034;28;20036;-38
2024/01/03 17:16:03;;;;;;;15.25;3.03;;;;;;;20.36;78.63;98952.09;5044335;28;20032;-37
2024/01/03 17:18:28;;;;;;;13.40;3.25;;;;;;;20.32;78.13;98949.19;5036872;28;20029;-37
2024/01/03 17:20:53;;;;;;;12.73;3.10;;;;;;;20.29;78.31;98943.56;5037724;28;20195;-40
2024/01/03 17:23:19;;;;;;;16.00;2.92;;;;;;;20.24;78.42;98935.53;5036854;28;20574;-38
2024/01/03 17:25:44;;;;;;;8.48;2.33;;;;;;;20.22;78.10;98937.81;5042693;28;20083;-37
2024/01/03 17:28:11;;;;;;;8.80;2.65;;;;;;;20.19;78.30;98937.34;5038405;28;20021;-38
2024/01/03 17:30:36;;;;;;;7.00;2.22;;;;;;;20.16;78.31;98937.22;5036403;28;20029;-38
2024/01/03 17:33:03;;;;;;;7.90;2.80;;;;;;;20.13;78.48;98944.19;5037405;28;20449;-39
2024/01/03 17:35:29;;;;;;;7.70;2.70;;;;;;;20.11;78.20;98951.16;5053671;28;20052;-41
2024/01/03 17:37:56;;;;;;;7.07;2.53;;;;;;;20.07;78.21;98944.75;5038455;28;20269;-40
2024/01/03 17:40:22;;;;;;;5.63;2.30;;;;;;;20.04;78.49;98948.97;5038050;28;20052;-39
2024/01/03 17:42:47;;;;;;;5.03;1.80;;;;;;;19.99;78.43;98952.72;5036738;28;20088;-36
2024/01/03 17:45:13;;;;;;;4.72;1.90;;;;;;;19.96;78.17;98961.66;5039512;28;20029;-37
2024/01/03 17:47:39;;;;;;;6.40;1.88;;;;;;;19.93;78.36;98961.53;5035238;28;20498;-37
2024/01/03 17:50:06;;;;;;;8.15;2.00;;;;;;;19.89;78.13;98958.63;5034835;28;20017;-38
2024/01/03 17:52:31;;;;;;;5.15;2.00;;;;;;;19.85;78.47;98966.75;5037801;28;20359;-37
2024/01/03 17:54:58;;;;;;;5.88;1.90;;;;;;;19.83;78.22;98969.00;5035603;28;20082;-38
2024/01/03 17:57:24;;;;;;;4.13;1.77;;;;;;;19.80;78.68;98966.09;5037132;28;20049;-38
2024/01/03 17:59:50;;;;;;;5.25;1.83;;;;;;;19.77;78.69;98983.28;5053755;28;20108;-37
2024/01/03 18:02:15;;;;;;;4.18;1.70;;;;;;;19.73;78.89;98972.94;5036076;28;20120;-38
2024/01/03 18:04:40;;;;;;;4.05;1.70;;;;;;;19.71;78.92;98963.41;5047383;28;20039;-38
2024/01/03 18:07:06;;;;;;;5.50;1.73;;;;;;;19.70;78.85;98970.84;5037589;28;20033;-39
2024/01/03 18:09:32;;;;;;;5.38;1.50;;;;;;;19.69;78.84;98971.16;5028861;28;20029;-40
2024/01/03 18:11:57;;;;;;;5.43;1.95;;;;;;;19.68;78.56;98970.38;5023603;28;20056;-38
2024/01/03 18:14:22;;;;;;;5.32;1.60;;;;;;;19.66;78.86;98966.34;5024473;28;20029;-38
2024/01/03 18:16:48;;;;;;;4.30;1.60;;;;;;;19.67;78.41;98973.47;5022933;28;20495;-38
2024/01/03 18:19:14;;;;;;;4.15;1.70;;;;;;;19.66;78.67;98988.34;5025338;28;20506;-38
2024/01/03 18:21:40;;;;;;;3.13;1.35;;;;;;;19.66;78.73;98986.38;5025630;28;20486;-38
2024/01/03 18:24:08;;;;;;;3.67;1.50;;;;;;;19.68;78.66;98980.56;5023524;28;20029;-38
2024/01/03 18:26:34;;;;;;;4.70;1.88;;;;;;;19.68;78.60;98986.03;5025125;28;20029;-38
2024/01/03 18:29:00;;;;;;;4.50;1.73;;;;;;;19.69;78.46;98993.16;5021635;28;20029;-37
2024/01/03 18:31:25;;;;;;;3.30;1.70;;;;;;;19.68;78.52;98997.88;5024167;28;20029;-39
2024/01/03 18:33:51;;;;;;;6.25;1.90;;;;;;;19.68;78.25;98989.63;5024966;28;20184;-40
2024/01/03 18:36:17;;;;;;;4.50;1.60;;;;;;;19.67;77.92;98995.47;5024775;28;20037;-37
2024/01/03 18:38:43;;;;;;;4.07;1.75;;;;;;;19.64;78.06;98988.66;5023023;28;20041;-37
2024/01/03 18:41:08;;;;;;;3.63;2.00;;;;;;;19.64;77.76;98996.09;5022425;28;20021;-38
2024/01/03 18:43:33;;;;;;;4.25;1.85;;;;;;;19.61;78.06;98986.59;5026057;28;20032;-37
2024/01/03 18:45:59;;;;;;;6.47;1.98;;;;;;;19.60;77.73;98995.16;5022749;28;20059;-37
2024/01/03 18:48:24;;;;;;;5.03;2.22;;;;;;;19.59;77.60;99004.53;5020676;28;20398;-42
2024/01/03 18:50:50;;;;;;;6.72;2.05;;;;;;;19.56;77.51;99009.56;5024159;28;20032;-38
2024/01/03 18:53:15;;;;;;;4.05;1.85;;;;;;;19.53;77.77;99012.97;5024084;28;20025;-39
2024/01/03 18:55:40;;;;;;;3.85;1.85;;;;;;;19.52;77.68;99011.38;5024106;28;20033;-40
2024/01/03 18:58:07;;;;;;;5.05;1.88;;;;;;;19.49;77.74;99005.72;5043340;28;20077;-40
2024/01/03 19:00:35;;;;;;;5.70;1.95;;;;;;;19.49;77.71;99023.00;5021979;28;20030;-39
2024/01/03 19:03:02;;;;;;;4.82;1.90;;;;;;;19.48;78.00;99024.13;5023178;28;20049;-39
2024/01/03 19:05:29;;;;;;;5.13;1.60;;;;;;;19.48;77.88;99020.59;5023218;28;20029;-39
2024/01/03 19:07:55;;;;;;;3.35;1.60;;;;;;;19.48;77.73;99026.88;5022913;28;20064;-39
2024/01/03 19:10:20;;;;;;;6.20;2.10;;;;;;;19.49;78.00;99025.75;5026416;28;20143;-37
2024/01/03 19:12:46;;;;;;;4.50;1.83;;;;;;;19.51;78.02;99030.91;5023172;28;20079;-38
2024/01/03 19:15:12;;;;;;;4.47;1.90;;;;;;;19.51;77.97;99031.72;5024029;28;20029;-37
2024/01/03 19:17:37;;;;;;;5.32;1.75;;;;;;;19.53;77.80;99039.63;5023754;28;20116;-37
2024/01/03 19:20:03;;;;;;;2.78;1.65;;;;;;;19.54;77.72;99050.28;5023256;28;20091;-37
2024/01/03 19:22:30;;;;;;;3.97;1.98;;;;;;;19.58;77.68;99061.44;5022465;28;20498;-40
2024/01/03 19:24:56;;;;;;;3.63;1.80;;;;;;;19.59;77.75;99071.28;5019087;28;20285;-40
2024/01/03 19:27:22;;;;;;;3.92;1.55;;;;;;;19.61;77.89;99077.28;5020381;28;20029;-39
2024/01/03 19:29:47;;;;;;;3.97;1.80;;;;;;;19.64;77.75;99079.34;5022058;28;20704;-39
2024/01/03 19:32:13;;;;;;;4.53;1.65;;;;;;;19.64;77.76;99076.59;5024497;28;20091;-39
2024/01/03 19:34:39;;;;;;;4.47;1.80;;;;;;;19.65;77.68;99085.66;5022600;28;20033;-39
2024/01/03 19:37:04;;;;;;;4.07;1.80;;;;;;;19.64;77.63;99089.53;5023625;28;20440;-37
2024/01/03 19:39:33;;;;;;;5.47;1.85;;;;;;;19.63;77.41;99088.75;5021708;28;20029;-37
2024/01/03 19:41:58;;;;;;;5.10;1.67;;;;;;;19.63;77.60;99090.66;5021365;28;20038;-38
2024/01/03 19:44:23;;;;;;;4.30;1.73;;;;;;;19.61;77.80;99098.44;5022162;28;20025;-38
2024/01/03 19:46:49;;;;;;;4.25;1.67;;;;;;;19.59;77.43;99101.50;5023558;28;20140;-38
2024/01/03 19:49:15;;;;;;;5.38;1.98;;;;;;;19.59;77.47;99104.25;5019429;28;20029;-38
2024/01/03 19:51:40;;;;;;;4.82;1.83;;;;;;;19.60;77.48;99099.59;5021961;28;20513;-39
2024/01/03 19:54:08;;;;;;;5.47;2.25;;;;;;;19.61;77.56;99106.66;5025174;28;20037;-39
2024/01/03 19:56:34;;;;;;;3.33;1.67;;;;;;;19.60;77.38;99111.38;5023795;28;20478;-39
2024/01/03 19:58:59;;;;;;;5.13;2.05;;;;;;;19.59;77.43;99120.75;5021050;28;20029;-39
2024/01/03 20:01:25;;;;;;;5.72;1.80;;;;;;;19.59;77.72;99118.00;5023130;28;20285;-38
2024/01/03 20:03:51;;;;;;;3.85;1.70;;;;;;;19.58;77.71;99119.13;5021182;28;20108;-39
2024/01/03 20:06:22;;;;;;;3.15;1.80;;;;;;;19.58;77.70;99129.34;5023403;28;20121;-37
2024/01/03 20:08:48;;;;;;;4.50;1.92;;;;;;;19.58;77.40;99132.88;5021714;28;20032;-37
2024/01/03 20:11:13;;;;;;;4.07;2.15;;;;;;;19.58;77.44;99134.81;5021977;28;20029;-36
2024/01/03 20:13:39;;;;;;;5.70;2.00;;;;;;;19.56;77.44;99135.16;5020774;28;20040;-37
2024/01/03 20:16:05;;;;;;;3.88;1.70;;;;;;;19.56;77.69;99140.66;5021974;28;20505;-39
2024/01/03 20:18:30;;;;;;;3.97;1.80;;;;;;;19.54;77.57;99151.97;5021323;28;20021;-39
2024/01/03 20:20:55;;;;;;;4.13;1.75;;;;;;;19.53;77.56;99153.13;5021170;28;20112;-39
2024/01/03 20:23:22;;;;;;;5.47;1.80;;;;;;;19.52;77.50;99150.66;5021683;28;20020;-38
2024/01/03 20:25:47;;;;;;;6.07;2.00;;;;;;;19.51;77.45;99157.31;5022529;28;20519;-39
2024/01/03 20:28:13;;;;;;;4.55;1.85;;;;;;;19.48;77.45;99156.00;5021876;28;20017;-39
2024/01/03 20:30:38;;;;;;;4.05;1.73;;;;;;;19.47;77.67;99151.69;5023111;28;20112;-39
2024/01/03 20:33:04;;;;;;;4.47;1.58;;;;;;;19.46;77.33;99162.97;5019934;28;20442;-38
2024/01/03 20:35:29;;;;;;;5.15;1.73;;;;;;;19.43;77.52;99169.94;5021702;28;20045;-38
2024/01/03 20:37:55;;;;;;;4.55;1.95;;;;;;;19.40;77.69;99176.09;5020378;28;20055;-39
2024/01/03 20:40:20;;;;;;;3.55;1.60;;;;;;;19.39;77.82;99180.75;5020557;28;20104;-38
2024/01/03 20:42:45;;;;;;;6.07;1.88;;;;;;;19.38;77.71;99176.41;5019896;28;20163;-38
2024/01/03 20:45:11;;;;;;;3.72;1.60;;;;;;;19.37;77.92;99187.72;5021579;28;20033;-38
2024/01/03 20:47:36;;;;;;;5.35;1.60;;;;;;;19.38;77.51;99189.34;5025043;28;20033;-40
2024/01/03 20:50:02;;;;;;;4.25;1.90;;;;;;;19.38;77.57;99190.13;5027361;28;20032;-40
2024/01/03 20:52:28;;;;;;;5.13;1.60;;;;;;;19.39;77.73;99196.47;5005430;28;20532;-40
2024/01/03 20:54:54;;;;;;;4.38;1.63;;;;;;;19.40;77.53;99198.88;5022380;28;20033;-39
2024/01/03 20:57:20;;;;;;;6.65;1.85;;;;;;;19.42;77.72;99208.72;5020955;28;20414;-39
2024/01/03 20:59:45;;;;;;;5.03;1.98;;;;;;;19.43;77.38;99210.34;5021780;28;20037;-40
2024/01/03 21:02:11;;;;;;;7.75;2.00;;;;;;;19.44;77.24;99220.22;5026396;28;20037;-39
2024/01/03 21:04:37;;;;;;;3.28;1.30;;;;;;;19.46;76.98;99220.66;5027841;28;20025;-39
2024/01/03 21:07:02;;;;;;;5.35;1.80;;;;;;;19.46;77.24;99228.91;5021791;28;20437;-39
2024/01/03 21:09:28;;;;;;;5.50;1.75;;;;;;;19.47;77.34;99225.03;5027024;28;20405;-37
2024/01/03 21:11:54;;;;;;;7.43;1.75;;;;;;;19.45;77.05;99228.13;5036710;28;20722;-37
2024/01/03 21:14:20;;;;;;;3.45;1.52;;;;;;;19.45;77.36;99227.28;5021227;28;20226;-37
2024/01/03 21:16:45;;;;;;;6.95;1.90;;;;;;;19.44;77.08;99232.00;5021926;28;20030;-37
2024/01/03 21:19:12;;;;;;;4.07;1.67;;;;;;;19.44;77.23;99233.94;5037239;28;20033;-37
2024/01/03 21:21:37;;;;;;;4.15;1.50;;;;;;;19.43;77.00;99229.56;5018706;28;20053;-38
2024/01/03 21:24:03;;;;;;;5.03;1.80;;;;;;;19.42;77.01;99233.44;5022855;28;20053;-36
2024/01/03 21:26:29;;;;;;;3.78;1.70;;;;;;;19.40;77.01;99240.06;5021340;28;20516;-37
2024/01/03 21:28:54;;;;;;;4.70;1.60;;;;;;;19.38;77.08;99247.81;5020953;28;20021;-38
2024/01/03 21:31:23;;;;;;;5.97;1.70;;;;;;;19.38;76.93;99260.78;5021745;28;20780;-39
2024/01/03 21:33:48;;;;;;;3.83;1.88;;;;;;;19.35;77.03;99261.41;5052973;28;20527;-39
2024/01/03 21:36:14;;;;;;;5.15;1.90;;;;;;;19.34;76.84;99257.84;5019854;28;20025;-39
2024/01/03 21:38:39;;;;;;;6.45;2.08;;;;;;;19.33;77.07;99266.44;5019712;28;20052;-37
2024/01/03 21:41:10;;;;;;;4.05;1.63;;;;;;;19.32;77.11;99267.56;5021534;28;20048;-36
2024/01/03 21:43:35;;;;;;;4.97;1.83;;;;;;;19.30;76.95;99278.06;5022013;28;20029;-37
2024/01/03 21:46:00;;;;;;;3.42;1.70;;;;;;;19.29;77.12;99281.94;5024761;28;20367;-38
2024/01/03 21:48:26;;;;;;;4.72;1.75;;;;;;;19.27;77.16;99292.44;5022405;28;20363;-37
2024/01/03 21:50:52;;;;;;;4.32;1.92;;;;;;;19.26;77.12;99291.63;5024608;28;20022;-39
2024/01/03 21:53:17;;;;;;;6.20;2.10;;;;;;;19.24;76.99;99302.94;5027001;28;20132;-38
2024/01/03 21:55:42;;;;;;;2.97;1.40;;;;;;;19.24;77.00;99305.69;5025055;28;20022;-37
2024/01/03 21:58:08;;;;;;;4.45;1.92;;;;;;;19.25;77.17;99306.47;5024243;28;20038;-37
2024/01/03 22:00:33;;;;;;;3.08;1.67;;;;;;;19.22;77.03;99299.69;5023640;28;20437;-38
2024/01/03 22:02:58;;;;;;;3.92;1.65;;;;;;;19.22;77.17;99299.69;5025183;28;20040;-36
2024/01/03 22:05:24;;;;;;;4.88;2.00;;;;;;;19.26;77.02;99318.28;5024909;28;20520;-37
2024/01/03 22:07:52;;;;;;;5.03;1.75;;;;;;;19.24;77.09;99324.91;5024526;28;20291;-39
2024/01/03 22:10:17;;;;;;;5.40;1.95;;;;;;;19.25;77.08;99328.44;5024706;28;20051;-40
2024/01/03 22:12:47;;;;;;;4.15;1.83;;;;;;;19.23;77.06;99327.97;5025240;28;20466;-39
2024/01/03 22:15:14;;;;;;;5.40;1.90;;;;;;;19.23;76.81;99334.28;5023230;28;20025;-39
2024/01/03 22:17:40;;;;;;;3.05;1.52;;;;;;;19.22;76.96;99351.09;5024855;28;20120;-39
2024/01/03 22:20:06;;;;;;;4.70;1.85;;;;;;;19.22;77.01;99359.31;5022356;28;20117;-41
2024/01/03 22:22:31;;;;;;;2.58;1.48;;;;;;;19.20;77.13;99356.91;5024386;28;20478;-38
2024/01/03 22:24:57;;;;;;;4.28;1.52;;;;;;;19.20;77.00;99356.06;5029708;28;20029;-39
2024/01/03 22:27:22;;;;;;;3.85;1.90;;;;;;;19.18;77.07;99363.84;5027846;28;20036;-37
2024/01/03 22:29:48;;;;;;;4.35;1.63;;;;;;;19.18;76.77;99361.91;5041464;28;20544;-37
2024/01/03 22:32:13;;;;;;;3.40;1.55;;;;;;;19.18;76.87;99372.88;5024651;28;20033;-38
2024/01/03 22:34:39;;;;;;;3.75;1.60;;;;;;;19.17;76.78;99373.22;5024378;28;20025;-36
2024/01/03 22:37:04;;;;;;;3.13;1.60;;;;;;;19.16;76.92;99377.88;5020057;28;20544;-36
2024/01/03 22:39:30;;;;;;;5.03;1.75;;;;;;;19.15;76.88;99386.44;5023306;28;20060;-37
2024/01/03 22:41:55;;;;;;;3.15;1.50;;;;;;;19.13;76.77;99392.25;5022888;28;20429;-37
2024/01/03 22:44:20;;;;;;;5.18;1.80;;;;;;;19.13;76.95;99394.19;5023377;28;20482;-37
2024/01/03 22:46:47;;;;;;;4.30;1.52;;;;;;;19.10;76.87;99405.81;5025282;28;20025;-37
2024/01/03 22:49:13;;;;;;;3.42;1.70;;;;;;;19.09;76.92;99413.25;5021408;28;20066;-37
2024/01/03 22:51:39;;;;;;;5.00;1.63;;;;;;;19.08;76.82;99411.66;5024578;28;20068;-38
2024/01/03 22:54:06;;;;;;;4.00;1.55;;;;;;;19.07;76.93;99424.53;5022041;28;20072;-38
2024/01/03 22:56:36;;;;;;;4.03;1.58;;;;;;;19.05;77.14;99432.28;5022649;28;20374;-38
2024/01/03 22:59:01;;;;;;;3.95;1.27;;;;;;;19.05;76.83;99442.47;5021144;28;20055;-37
2024/01/03 23:01:32;;;;;;;4.90;1.70;;;;;;;19.04;76.73;99449.91;5024923;28;20079;-37
2024/01/03 23:03:57;;;;;;;3.00;1.45;;;;;;;19.01;76.79;99442.28;5020690;28;20029;-37
2024/01/03 23:06:25;;;;;;;3.88;1.40;;;;;;;19.00;76.77;99457.16;5022486;28;20470;-37
2024/01/03 23:08:51;;;;;;;6.25;1.52;;;;;;;18.98;76.77;99456.66;5022034;28;20060;-37
2024/01/03 23:11:16;;;;;;;2.83;1.25;;;;;;;18.97;76.88;99466.03;5023590;28;20108;-37
2024/01/03 23:13:42;;;;;;;6.25;1.50;;;;;;;18.97;77.04;99467.94;5023324;28;20079;-39
2024/01/03 23:16:07;;;;;;;4.05;1.50;;;;;;;18.96;76.96;99469.06;5023014;28;20450;-39
2024/01/03 23:18:33;;;;;;;4.70;1.58;;;;;;;18.94;77.02;99477.63;5023229;28;20033;-37
2024/01/03 23:21:00;;;;;;;3.38;1.42;;;;;;;18.93;77.31;99484.25;5024315;28;20431;-37
2024/01/03 23:23:25;;;;;;;5.10;1.67;;;;;;;18.90;77.20;99482.91;5021494;28;20474;-37
2024/01/03 23:25:50;;;;;;;3.65;1.38;;;;;;;18.88;77.24;99492.59;5023458;28;20029;-37
2024/01/03 23:28:16;;;;;;;4.05;1.33;;;;;;;18.87;77.37;99505.50;5019385;28;20060;-37
2024/01/03 23:30:41;;;;;;;2.70;1.48;;;;;;;18.85;77.36;99507.75;5021335;28;20033;-37
2024/01/03 23:33:07;;;;;;;3.30;1.35;;;;;;;18.84;77.45;99513.56;5019863;28;20072;-37
2024/01/03 23:35:32;;;;;;;3.63;1.60;;;;;;;18.81;77.43;99515.00;5022426;28;20025;-37
2024/01/03 23:38:00;;;;;;;3.42;1.45;;;;;;;18.80;77.70;99520.78;5020708;28;20034;-37
2024/01/03 23:40:25;;;;;;;4.18;1.50;;;;;;;18.79;77.60;99530.19;5025488;28;20037;-37
2024/01/03 23:42:51;;;;;;;4.35;1.50;;;;;;;18.77;77.70;99535.97;5023607;28;20376;-39
2024/01/03 23:45:16;;;;;;;3.53;1.45;;;;;;;18.74;77.65;99537.41;5023603;28;20520;-38
2024/01/03 23:47:42;;;;;;;3.67;1.65;;;;;;;18.74;77.68;99537.41;5021184;28;20182;-37
2024/01/03 23:50:07;;;;;;;2.30;1.30;;;;;;;18.73;77.68;99546.75;5017018;28;20036;-38
2024/01/03 23:52:32;;;;;;;4.15;1.30;;;;;;;18.71;77.91;99549.00;5022478;28;20036;-37
2024/01/03 23:54:58;;;;;;;4.93;1.52;;;;;;;18.71;77.75;99554.50;5021891;28;20021;-37
2024/01/03 23:57:23;;;;;;;1.77;1.10;;;;;;;18.69;77.90;99555.94;5022565;28;20045;-37
2024/01/03 23:59:49;;;;;;;5.45;1.40;;;;;;;18.68;78.03;99552.38;5022061;28;20528;-39
